sensor_id;sensor_type;location;lat;lon;timestamp;P1;durP1;ratioP1;P2;durP2;ratioP2
15356;SDS011;7778;48.792;9.260;2022-08-24T00:01:31;4.00;;;2.58;;
15356;SDS011;7778;48.792;9.260;2022-08-24T00:04:16;6.80;;;2.90;;
15356;SDS011;7778;48.792;9.260;2022-08-24T00:07:02;5.68;;;2.88;;
15356;SDS011;7778;48.792;9.260;2022-08-24T00:09:49;4.85;;;3.05;;
15356;SDS011;7778;48.792;9.260;2022-08-24T00:12:35;4.22;;;3.08;;
15356;SDS011;7778;48.792;9.260;2022-08-24T00:15:22;4.90;;;2.70;;
15356;SDS011;7778;48.792;9.260;2022-08-24T00:18:08;3.05;;;2.50;;
15356;SDS011;7778;48.792;9.260;2022-08-24T00:20:54;3.80;;;2.83;;
15356;SDS011;7778;48.792;9.260;2022-08-24T00:23:40;5.63;;;3.08;;
15356;SDS011;7778;48.792;9.260;2022-08-24T00:26:26;3.40;;;2.92;;
15356;SDS011;7778;48.792;9.260;2022-08-24T00:29:12;4.93;;;2.90;;
15356;SDS011;7778;48.792;9.260;2022-08-24T00:32:02;3.60;;;2.70;;
15356;SDS011;7778;48.792;9.260;2022-08-24T00:34:48;4.80;;;2.80;;
15356;SDS011;7778;48.792;9.260;2022-08-24T00:37:34;3.38;;;2.78;;
15356;SDS011;7778;48.792;9.260;2022-08-24T00:40:22;4.35;;;2.58;;
15356;SDS011;7778;48.792;9.260;2022-08-24T00:43:11;4.00;;;3.03;;
15356;SDS011;7778;48.792;9.260;2022-08-24T00:46:02;3.60;;;2.60;;
15356;SDS011;7778;48.792;9.260;2022-08-24T00:49:00;3.30;;;3.00;;
15356;SDS011;7778;48.792;9.260;2022-08-24T00:51:50;3.28;;;2.50;;
15356;SDS011;7778;48.792;9.260;2022-08-24T00:54:42;2.85;;;2.22;;
15356;SDS011;7778;48.792;9.260;2022-08-24T00:57:33;4.40;;;2.58;;
15356;SDS011;7778;48.792;9.260;2022-08-24T01:00:26;6.22;;;2.88;;
15356;SDS011;7778;48.792;9.260;2022-08-24T01:03:14;4.60;;;2.63;;
15356;SDS011;7778;48.792;9.260;2022-08-24T01:06:03;5.18;;;2.80;;
15356;SDS011;7778;48.792;9.260;2022-08-24T01:08:49;5.55;;;2.67;;
15356;SDS011;7778;48.792;9.260;2022-08-24T01:11:36;3.67;;;1.98;;
15356;SDS011;7778;48.792;9.260;2022-08-24T01:14:22;4.32;;;2.58;;
15356;SDS011;7778;48.792;9.260;2022-08-24T01:17:08;3.67;;;2.75;;
15356;SDS011;7778;48.792;9.260;2022-08-24T01:20:12;8.15;;;4.05;;
15356;SDS011;7778;48.792;9.260;2022-08-24T01:23:02;7.40;;;3.80;;
15356;SDS011;7778;48.792;9.260;2022-08-24T01:25:57;5.13;;;3.00;;
15356;SDS011;7778;48.792;9.260;2022-08-24T01:28:45;4.07;;;2.80;;
15356;SDS011;7778;48.792;9.260;2022-08-24T01:31:34;6.53;;;2.95;;
15356;SDS011;7778;48.792;9.260;2022-08-24T01:34:20;3.45;;;2.88;;
15356;SDS011;7778;48.792;9.260;2022-08-24T01:37:06;5.03;;;2.88;;
15356;SDS011;7778;48.792;9.260;2022-08-24T01:39:55;3.22;;;2.80;;
15356;SDS011;7778;48.792;9.260;2022-08-24T01:42:47;4.03;;;3.08;;
15356;SDS011;7778;48.792;9.260;2022-08-24T01:45:34;4.43;;;3.33;;
15356;SDS011;7778;48.792;9.260;2022-08-24T01:48:20;4.65;;;3.35;;
15356;SDS011;7778;48.792;9.260;2022-08-24T01:51:06;4.00;;;3.35;;
15356;SDS011;7778;48.792;9.260;2022-08-24T01:53:51;4.13;;;2.80;;
15356;SDS011;7778;48.792;9.260;2022-08-24T01:56:37;8.82;;;3.38;;
15356;SDS011;7778;48.792;9.260;2022-08-24T01:59:24;5.90;;;3.00;;
15356;SDS011;7778;48.792;9.260;2022-08-24T02:02:10;4.53;;;3.22;;
15356;SDS011;7778;48.792;9.260;2022-08-24T02:05:00;3.45;;;2.67;;
15356;SDS011;7778;48.792;9.260;2022-08-24T02:07:45;4.57;;;3.20;;
15356;SDS011;7778;48.792;9.260;2022-08-24T02:10:31;3.53;;;2.72;;
15356;SDS011;7778;48.792;9.260;2022-08-24T02:13:21;5.18;;;3.22;;
15356;SDS011;7778;48.792;9.260;2022-08-24T02:16:08;4.57;;;3.03;;
15356;SDS011;7778;48.792;9.260;2022-08-24T02:18:53;6.13;;;3.25;;
15356;SDS011;7778;48.792;9.260;2022-08-24T02:21:39;5.97;;;2.80;;
15356;SDS011;7778;48.792;9.260;2022-08-24T02:24:25;4.97;;;3.05;;
15356;SDS011;7778;48.792;9.260;2022-08-24T02:27:11;4.22;;;3.08;;
15356;SDS011;7778;48.792;9.260;2022-08-24T02:29:59;4.20;;;3.03;;
15356;SDS011;7778;48.792;9.260;2022-08-24T02:32:46;3.42;;;2.88;;
15356;SDS011;7778;48.792;9.260;2022-08-24T02:35:32;3.08;;;2.70;;
15356;SDS011;7778;48.792;9.260;2022-08-24T02:38:24;6.93;;;3.25;;
15356;SDS011;7778;48.792;9.260;2022-08-24T02:41:09;3.85;;;3.00;;
15356;SDS011;7778;48.792;9.260;2022-08-24T02:43:56;6.07;;;3.00;;
15356;SDS011;7778;48.792;9.260;2022-08-24T02:46:42;5.97;;;3.72;;
15356;SDS011;7778;48.792;9.260;2022-08-24T02:49:29;3.95;;;3.03;;
15356;SDS011;7778;48.792;9.260;2022-08-24T02:52:15;3.67;;;3.05;;
15356;SDS011;7778;48.792;9.260;2022-08-24T02:55:00;6.93;;;3.30;;
15356;SDS011;7778;48.792;9.260;2022-08-24T02:57:47;7.28;;;3.42;;
15356;SDS011;7778;48.792;9.260;2022-08-24T03:00:33;5.60;;;3.00;;
15356;SDS011;7778;48.792;9.260;2022-08-24T03:03:21;5.22;;;3.08;;
15356;SDS011;7778;48.792;9.260;2022-08-24T03:06:08;3.58;;;3.08;;
15356;SDS011;7778;48.792;9.260;2022-08-24T03:08:54;7.55;;;3.40;;
15356;SDS011;7778;48.792;9.260;2022-08-24T03:11:40;5.00;;;3.30;;
15356;SDS011;7778;48.792;9.260;2022-08-24T03:14:26;5.45;;;3.15;;
15356;SDS011;7778;48.792;9.260;2022-08-24T03:17:11;3.67;;;3.30;;
15356;SDS011;7778;48.792;9.260;2022-08-24T03:19:57;5.13;;;3.33;;
15356;SDS011;7778;48.792;9.260;2022-08-24T03:22:45;4.60;;;3.63;;
15356;SDS011;7778;48.792;9.260;2022-08-24T03:25:31;3.78;;;3.28;;
15356;SDS011;7778;48.792;9.260;2022-08-24T03:28:17;5.07;;;3.30;;
15356;SDS011;7778;48.792;9.260;2022-08-24T03:31:03;7.32;;;3.95;;
15356;SDS011;7778;48.792;9.260;2022-08-24T03:33:50;6.93;;;4.10;;
15356;SDS011;7778;48.792;9.260;2022-08-24T03:36:35;4.13;;;3.65;;
15356;SDS011;7778;48.792;9.260;2022-08-24T03:39:22;4.97;;;3.40;;
15356;SDS011;7778;48.792;9.260;2022-08-24T03:42:08;7.35;;;4.20;;
15356;SDS011;7778;48.792;9.260;2022-08-24T03:44:54;4.97;;;3.78;;
15356;SDS011;7778;48.792;9.260;2022-08-24T03:47:39;4.40;;;3.40;;
15356;SDS011;7778;48.792;9.260;2022-08-24T03:50:25;5.60;;;4.30;;
15356;SDS011;7778;48.792;9.260;2022-08-24T03:53:11;5.35;;;3.25;;
15356;SDS011;7778;48.792;9.260;2022-08-24T03:55:57;7.05;;;3.45;;
15356;SDS011;7778;48.792;9.260;2022-08-24T03:58:44;4.32;;;3.45;;
15356;SDS011;7778;48.792;9.260;2022-08-24T04:01:30;7.25;;;3.88;;
15356;SDS011;7778;48.792;9.260;2022-08-24T04:04:16;5.22;;;3.75;;
15356;SDS011;7778;48.792;9.260;2022-08-24T04:07:02;6.15;;;3.67;;
15356;SDS011;7778;48.792;9.260;2022-08-24T04:09:48;7.20;;;4.00;;
15356;SDS011;7778;48.792;9.260;2022-08-24T04:12:35;5.07;;;4.00;;
15356;SDS011;7778;48.792;9.260;2022-08-24T04:15:21;4.30;;;3.42;;
15356;SDS011;7778;48.792;9.260;2022-08-24T04:18:08;5.57;;;4.10;;
15356;SDS011;7778;48.792;9.260;2022-08-24T04:20:54;5.03;;;3.70;;
15356;SDS011;7778;48.792;9.260;2022-08-24T04:23:40;6.00;;;3.75;;
15356;SDS011;7778;48.792;9.260;2022-08-24T04:26:26;5.80;;;3.63;;
15356;SDS011;7778;48.792;9.260;2022-08-24T04:29:16;4.03;;;3.63;;
15356;SDS011;7778;48.792;9.260;2022-08-24T04:32:03;6.22;;;3.58;;
15356;SDS011;7778;48.792;9.260;2022-08-24T04:34:50;5.80;;;3.38;;
15356;SDS011;7778;48.792;9.260;2022-08-24T04:37:35;5.82;;;3.47;;
15356;SDS011;7778;48.792;9.260;2022-08-24T04:40:21;4.82;;;3.35;;
15356;SDS011;7778;48.792;9.260;2022-08-24T04:43:07;5.72;;;3.30;;
15356;SDS011;7778;48.792;9.260;2022-08-24T04:45:55;6.38;;;3.15;;
15356;SDS011;7778;48.792;9.260;2022-08-24T04:48:41;8.20;;;4.85;;
15356;SDS011;7778;48.792;9.260;2022-08-24T04:51:28;6.90;;;3.63;;
15356;SDS011;7778;48.792;9.260;2022-08-24T04:54:14;4.60;;;3.40;;
15356;SDS011;7778;48.792;9.260;2022-08-24T04:57:00;6.18;;;3.58;;
15356;SDS011;7778;48.792;9.260;2022-08-24T04:59:46;7.13;;;4.10;;
15356;SDS011;7778;48.792;9.260;2022-08-24T05:02:33;4.18;;;3.20;;
15356;SDS011;7778;48.792;9.260;2022-08-24T05:05:22;5.10;;;2.80;;
15356;SDS011;7778;48.792;9.260;2022-08-24T05:08:08;3.58;;;3.15;;
15356;SDS011;7778;48.792;9.260;2022-08-24T05:10:55;7.05;;;3.03;;
15356;SDS011;7778;48.792;9.260;2022-08-24T05:13:42;3.22;;;2.70;;
15356;SDS011;7778;48.792;9.260;2022-08-24T05:16:29;5.18;;;3.08;;
15356;SDS011;7778;48.792;9.260;2022-08-24T05:19:18;3.95;;;3.03;;
15356;SDS011;7778;48.792;9.260;2022-08-24T05:22:04;7.47;;;3.28;;
15356;SDS011;7778;48.792;9.260;2022-08-24T05:24:50;4.10;;;3.30;;
15356;SDS011;7778;48.792;9.260;2022-08-24T05:27:35;4.93;;;3.10;;
15356;SDS011;7778;48.792;9.260;2022-08-24T05:30:21;3.40;;;2.80;;
15356;SDS011;7778;48.792;9.260;2022-08-24T05:33:07;3.88;;;2.95;;
15356;SDS011;7778;48.792;9.260;2022-08-24T05:35:54;4.25;;;2.92;;
15356;SDS011;7778;48.792;9.260;2022-08-24T05:38:40;5.72;;;3.20;;
15356;SDS011;7778;48.792;9.260;2022-08-24T05:41:26;5.60;;;3.13;;
15356;SDS011;7778;48.792;9.260;2022-08-24T05:44:17;4.68;;;3.22;;
15356;SDS011;7778;48.792;9.260;2022-08-24T05:47:02;4.28;;;3.10;;
15356;SDS011;7778;48.792;9.260;2022-08-24T05:49:49;3.83;;;2.60;;
15356;SDS011;7778;48.792;9.260;2022-08-24T05:52:37;6.60;;;3.10;;
15356;SDS011;7778;48.792;9.260;2022-08-24T05:55:23;5.00;;;3.13;;
15356;SDS011;7778;48.792;9.260;2022-08-24T05:58:09;3.85;;;3.17;;
15356;SDS011;7778;48.792;9.260;2022-08-24T06:00:54;6.40;;;3.13;;
15356;SDS011;7778;48.792;9.260;2022-08-24T06:03:40;4.63;;;3.05;;
15356;SDS011;7778;48.792;9.260;2022-08-24T06:06:26;6.63;;;2.63;;
15356;SDS011;7778;48.792;9.260;2022-08-24T06:09:13;3.25;;;2.60;;
15356;SDS011;7778;48.792;9.260;2022-08-24T06:12:02;4.40;;;2.92;;
15356;SDS011;7778;48.792;9.260;2022-08-24T06:14:49;3.40;;;2.78;;
15356;SDS011;7778;48.792;9.260;2022-08-24T06:17:34;4.40;;;2.55;;
15356;SDS011;7778;48.792;9.260;2022-08-24T06:20:20;3.20;;;2.40;;
15356;SDS011;7778;48.792;9.260;2022-08-24T06:23:06;4.03;;;2.92;;
15356;SDS011;7778;48.792;9.260;2022-08-24T06:25:53;3.75;;;2.65;;
15356;SDS011;7778;48.792;9.260;2022-08-24T06:28:59;2.95;;;2.45;;
15356;SDS011;7778;48.792;9.260;2022-08-24T06:31:46;2.80;;;2.47;;
15356;SDS011;7778;48.792;9.260;2022-08-24T06:34:34;3.53;;;2.63;;
15356;SDS011;7778;48.792;9.260;2022-08-24T06:37:22;5.00;;;2.55;;
15356;SDS011;7778;48.792;9.260;2022-08-24T06:40:09;6.05;;;2.85;;
15356;SDS011;7778;48.792;9.260;2022-08-24T06:42:59;2.13;;;1.92;;
15356;SDS011;7778;48.792;9.260;2022-08-24T06:45:46;2.20;;;2.00;;
15356;SDS011;7778;48.792;9.260;2022-08-24T06:48:33;2.60;;;2.13;;
15356;SDS011;7778;48.792;9.260;2022-08-24T06:51:19;2.22;;;2.03;;
15356;SDS011;7778;48.792;9.260;2022-08-24T06:54:06;3.80;;;2.65;;
15356;SDS011;7778;48.792;9.260;2022-08-24T06:56:51;2.70;;;2.50;;
15356;SDS011;7778;48.792;9.260;2022-08-24T06:59:40;3.92;;;2.42;;
15356;SDS011;7778;48.792;9.260;2022-08-24T07:02:27;6.05;;;2.90;;
15356;SDS011;7778;48.792;9.260;2022-08-24T07:05:13;3.15;;;2.45;;
15356;SDS011;7778;48.792;9.260;2022-08-24T07:07:58;3.50;;;2.30;;
15356;SDS011;7778;48.792;9.260;2022-08-24T07:10:44;2.40;;;2.20;;
15356;SDS011;7778;48.792;9.260;2022-08-24T07:13:30;2.10;;;1.90;;
15356;SDS011;7778;48.792;9.260;2022-08-24T07:16:18;2.92;;;2.40;;
15356;SDS011;7778;48.792;9.260;2022-08-24T07:19:04;2.67;;;2.38;;
15356;SDS011;7778;48.792;9.260;2022-08-24T07:21:54;2.97;;;2.30;;
15356;SDS011;7778;48.792;9.260;2022-08-24T07:24:40;5.25;;;2.60;;
15356;SDS011;7778;48.792;9.260;2022-08-24T07:27:26;3.22;;;2.15;;
15356;SDS011;7778;48.792;9.260;2022-08-24T07:30:12;2.33;;;2.13;;
15356;SDS011;7778;48.792;9.260;2022-08-24T07:33:00;2.40;;;2.20;;
15356;SDS011;7778;48.792;9.260;2022-08-24T07:35:45;3.08;;;2.10;;
15356;SDS011;7778;48.792;9.260;2022-08-24T07:38:31;2.30;;;1.95;;
15356;SDS011;7778;48.792;9.260;2022-08-24T07:41:17;2.83;;;2.10;;
15356;SDS011;7778;48.792;9.260;2022-08-24T07:44:03;3.78;;;2.80;;
15356;SDS011;7778;48.792;9.260;2022-08-24T07:46:49;1.90;;;1.80;;
15356;SDS011;7778;48.792;9.260;2022-08-24T07:49:36;5.07;;;2.40;;
15356;SDS011;7778;48.792;9.260;2022-08-24T07:52:24;2.28;;;2.05;;
15356;SDS011;7778;48.792;9.260;2022-08-24T07:55:10;3.63;;;2.40;;
15356;SDS011;7778;48.792;9.260;2022-08-24T07:57:58;3.00;;;2.10;;
15356;SDS011;7778;48.792;9.260;2022-08-24T08:00:45;1.92;;;1.75;;
15356;SDS011;7778;48.792;9.260;2022-08-24T08:03:31;2.70;;;1.95;;
15356;SDS011;7778;48.792;9.260;2022-08-24T08:06:18;2.83;;;2.03;;
15356;SDS011;7778;48.792;9.260;2022-08-24T08:09:04;2.78;;;2.30;;
15356;SDS011;7778;48.792;9.260;2022-08-24T08:11:50;2.47;;;2.28;;
15356;SDS011;7778;48.792;9.260;2022-08-24T08:14:36;5.10;;;2.35;;
15356;SDS011;7778;48.792;9.260;2022-08-24T08:17:22;4.13;;;1.90;;
15356;SDS011;7778;48.792;9.260;2022-08-24T08:20:08;2.20;;;2.00;;
15356;SDS011;7778;48.792;9.260;2022-08-24T08:22:56;3.33;;;1.88;;
15356;SDS011;7778;48.792;9.260;2022-08-24T08:25:59;2.75;;;2.25;;
15356;SDS011;7778;48.792;9.260;2022-08-24T08:28:45;9.85;;;3.33;;
15356;SDS011;7778;48.792;9.260;2022-08-24T08:31:31;2.60;;;2.20;;
15356;SDS011;7778;48.792;9.260;2022-08-24T08:34:17;2.53;;;2.28;;
15356;SDS011;7778;48.792;9.260;2022-08-24T08:37:03;4.60;;;2.42;;
15356;SDS011;7778;48.792;9.260;2022-08-24T08:39:52;4.05;;;2.55;;
15356;SDS011;7778;48.792;9.260;2022-08-24T08:42:41;2.72;;;2.53;;
15356;SDS011;7778;48.792;9.260;2022-08-24T08:45:46;6.30;;;3.38;;
15356;SDS011;7778;48.792;9.260;2022-08-24T08:49:00;2.92;;;2.25;;
15356;SDS011;7778;48.792;9.260;2022-08-24T08:55:25;2.65;;;2.20;;
15356;SDS011;7778;48.792;9.260;2022-08-24T08:58:19;1.52;;;1.42;;
15356;SDS011;7778;48.792;9.260;2022-08-24T09:01:36;1.17;;;1.05;;
15356;SDS011;7778;48.792;9.260;2022-08-24T09:04:44;2.33;;;1.42;;
15356;SDS011;7778;48.792;9.260;2022-08-24T09:07:44;0.90;;;0.90;;
15356;SDS011;7778;48.792;9.260;2022-08-24T09:10:41;0.93;;;0.93;;
15356;SDS011;7778;48.792;9.260;2022-08-24T09:13:44;3.75;;;1.10;;
15356;SDS011;7778;48.792;9.260;2022-08-24T09:16:52;1.50;;;1.40;;
15356;SDS011;7778;48.792;9.260;2022-08-24T09:20:00;1.58;;;1.15;;
15356;SDS011;7778;48.792;9.260;2022-08-24T09:23:02;1.33;;;1.23;;
15356;SDS011;7778;48.792;9.260;2022-08-24T09:25:58;1.45;;;1.40;;
15356;SDS011;7778;48.792;9.260;2022-08-24T09:28:51;1.02;;;1.00;;
15356;SDS011;7778;48.792;9.260;2022-08-24T09:31:48;1.70;;;1.50;;
15356;SDS011;7778;48.792;9.260;2022-08-24T09:34:46;1.63;;;1.45;;
15356;SDS011;7778;48.792;9.260;2022-08-24T09:37:47;1.80;;;1.35;;
15356;SDS011;7778;48.792;9.260;2022-08-24T09:40:50;3.45;;;0.98;;
15356;SDS011;7778;48.792;9.260;2022-08-24T09:44:03;1.75;;;1.42;;
15356;SDS011;7778;48.792;9.260;2022-08-24T09:47:31;1.45;;;1.35;;
15356;SDS011;7778;48.792;9.260;2022-08-24T09:54:23;2.10;;;1.50;;
15356;SDS011;7778;48.792;9.260;2022-08-24T09:57:50;2.25;;;1.40;;
15356;SDS011;7778;48.792;9.260;2022-08-24T10:00:52;1.45;;;1.35;;
15356;SDS011;7778;48.792;9.260;2022-08-24T10:03:54;1.95;;;1.48;;
15356;SDS011;7778;48.792;9.260;2022-08-24T10:06:56;1.58;;;1.48;;
15356;SDS011;7778;48.792;9.260;2022-08-24T10:09:57;1.60;;;1.50;;
15356;SDS011;7778;48.792;9.260;2022-08-24T10:13:02;1.67;;;1.48;;
15356;SDS011;7778;48.792;9.260;2022-08-24T10:16:14;1.48;;;1.38;;
15356;SDS011;7778;48.792;9.260;2022-08-24T10:19:17;2.08;;;1.50;;
15356;SDS011;7778;48.792;9.260;2022-08-24T10:22:29;2.10;;;1.67;;
15356;SDS011;7778;48.792;9.260;2022-08-24T10:25:34;3.70;;;1.55;;
15356;SDS011;7778;48.792;9.260;2022-08-24T10:28:30;1.98;;;1.75;;
15356;SDS011;7778;48.792;9.260;2022-08-24T10:31:33;2.22;;;1.70;;
15356;SDS011;7778;48.792;9.260;2022-08-24T10:34:30;1.52;;;1.42;;
15356;SDS011;7778;48.792;9.260;2022-08-24T10:37:36;1.45;;;1.38;;
15356;SDS011;7778;48.792;9.260;2022-08-24T10:41:21;2.10;;;1.60;;
15356;SDS011;7778;48.792;9.260;2022-08-24T10:44:42;3.10;;;1.90;;
15356;SDS011;7778;48.792;9.260;2022-08-24T10:47:34;1.30;;;1.20;;
15356;SDS011;7778;48.792;9.260;2022-08-24T10:50:28;1.60;;;1.50;;
15356;SDS011;7778;48.792;9.260;2022-08-24T10:53:28;2.00;;;1.50;;
15356;SDS011;7778;48.792;9.260;2022-08-24T10:56:16;1.80;;;1.65;;
15356;SDS011;7778;48.792;9.260;2022-08-24T10:59:21;1.40;;;1.30;;
15356;SDS011;7778;48.792;9.260;2022-08-24T11:02:27;1.52;;;1.38;;
15356;SDS011;7778;48.792;9.260;2022-08-24T11:05:16;2.97;;;1.33;;
15356;SDS011;7778;48.792;9.260;2022-08-24T11:08:18;2.05;;;1.25;;
15356;SDS011;7778;48.792;9.260;2022-08-24T11:11:07;1.52;;;1.40;;
15356;SDS011;7778;48.792;9.260;2022-08-24T11:13:57;1.15;;;1.15;;
15356;SDS011;7778;48.792;9.260;2022-08-24T11:16:46;2.47;;;1.48;;
15356;SDS011;7778;48.792;9.260;2022-08-24T11:19:34;1.85;;;1.70;;
15356;SDS011;7778;48.792;9.260;2022-08-24T11:25:43;1.48;;;1.38;;
15356;SDS011;7778;48.792;9.260;2022-08-24T11:28:39;2.70;;;1.67;;
15356;SDS011;7778;48.792;9.260;2022-08-24T11:31:32;1.65;;;1.55;;
15356;SDS011;7778;48.792;9.260;2022-08-24T11:34:30;2.30;;;1.50;;
15356;SDS011;7778;48.792;9.260;2022-08-24T11:37:21;1.85;;;1.20;;
15356;SDS011;7778;48.792;9.260;2022-08-24T11:40:09;1.55;;;1.40;;
15356;SDS011;7778;48.792;9.260;2022-08-24T11:43:11;1.20;;;1.20;;
15356;SDS011;7778;48.792;9.260;2022-08-24T11:46:13;1.40;;;1.30;;
15356;SDS011;7778;48.792;9.260;2022-08-24T11:49:11;1.25;;;1.15;;
15356;SDS011;7778;48.792;9.260;2022-08-24T11:52:10;1.35;;;1.25;;
15356;SDS011;7778;48.792;9.260;2022-08-24T11:55:15;1.00;;;1.00;;
15356;SDS011;7778;48.792;9.260;2022-08-24T11:58:09;1.25;;;1.15;;
15356;SDS011;7778;48.792;9.260;2022-08-24T12:01:02;1.40;;;1.30;;
15356;SDS011;7778;48.792;9.260;2022-08-24T12:07:22;1.48;;;1.33;;
15356;SDS011;7778;48.792;9.260;2022-08-24T12:10:18;6.15;;;1.73;;
15356;SDS011;7778;48.792;9.260;2022-08-24T12:13:15;1.40;;;1.30;;
15356;SDS011;7778;48.792;9.260;2022-08-24T12:16:16;1.55;;;1.30;;
15356;SDS011;7778;48.792;9.260;2022-08-24T12:19:10;3.08;;;1.45;;
15356;SDS011;7778;48.792;9.260;2022-08-24T12:22:04;2.08;;;1.52;;
15356;SDS011;7778;48.792;9.260;2022-08-24T12:24:54;2.28;;;1.40;;
15356;SDS011;7778;48.792;9.260;2022-08-24T12:27:43;1.38;;;1.10;;
15356;SDS011;7778;48.792;9.260;2022-08-24T12:30:28;2.22;;;1.50;;
15356;SDS011;7778;48.792;9.260;2022-08-24T12:33:15;0.95;;;0.90;;
15356;SDS011;7778;48.792;9.260;2022-08-24T12:36:13;1.25;;;1.20;;
15356;SDS011;7778;48.792;9.260;2022-08-24T12:39:08;1.80;;;1.33;;
15356;SDS011;7778;48.792;9.260;2022-08-24T12:42:02;1.65;;;1.10;;
15356;SDS011;7778;48.792;9.260;2022-08-24T12:44:56;1.73;;;1.27;;
15356;SDS011;7778;48.792;9.260;2022-08-24T12:47:45;2.35;;;1.10;;
15356;SDS011;7778;48.792;9.260;2022-08-24T12:50:40;2.83;;;1.60;;
15356;SDS011;7778;48.792;9.260;2022-08-24T12:57:12;1.50;;;1.30;;
15356;SDS011;7778;48.792;9.260;2022-08-24T13:00:12;1.95;;;1.50;;
15356;SDS011;7778;48.792;9.260;2022-08-24T13:03:05;0.93;;;0.93;;
15356;SDS011;7778;48.792;9.260;2022-08-24T13:06:06;0.90;;;0.90;;
15356;SDS011;7778;48.792;9.260;2022-08-24T13:09:03;1.48;;;1.17;;
15356;SDS011;7778;48.792;9.260;2022-08-24T13:11:53;1.13;;;1.10;;
15356;SDS011;7778;48.792;9.260;2022-08-24T13:14:42;2.15;;;1.10;;
15356;SDS011;7778;48.792;9.260;2022-08-24T13:17:38;1.83;;;1.23;;
15356;SDS011;7778;48.792;9.260;2022-08-24T13:20:27;0.95;;;0.93;;
15356;SDS011;7778;48.792;9.260;2022-08-24T13:23:34;1.13;;;1.10;;
15356;SDS011;7778;48.792;9.260;2022-08-24T13:26:22;1.17;;;1.10;;
15356;SDS011;7778;48.792;9.260;2022-08-24T13:29:10;1.10;;;1.10;;
15356;SDS011;7778;48.792;9.260;2022-08-24T13:32:01;2.03;;;1.50;;
15356;SDS011;7778;48.792;9.260;2022-08-24T13:34:47;1.08;;;0.98;;
15356;SDS011;7778;48.792;9.260;2022-08-24T13:37:34;1.38;;;1.13;;
15356;SDS011;7778;48.792;9.260;2022-08-24T13:40:21;1.52;;;0.95;;
15356;SDS011;7778;48.792;9.260;2022-08-24T13:43:11;1.20;;;1.10;;
15356;SDS011;7778;48.792;9.260;2022-08-24T13:46:08;1.92;;;1.50;;
15356;SDS011;7778;48.792;9.260;2022-08-24T13:49:09;1.58;;;1.48;;
15356;SDS011;7778;48.792;9.260;2022-08-24T13:52:18;3.03;;;1.50;;
15356;SDS011;7778;48.792;9.260;2022-08-24T13:55:33;1.45;;;1.10;;
15356;SDS011;7778;48.792;9.260;2022-08-24T13:58:33;2.35;;;1.48;;
15356;SDS011;7778;48.792;9.260;2022-08-24T14:01:27;1.58;;;1.48;;
15356;SDS011;7778;48.792;9.260;2022-08-24T14:04:32;1.30;;;1.20;;
15356;SDS011;7778;48.792;9.260;2022-08-24T14:07:29;1.77;;;1.65;;
15356;SDS011;7778;48.792;9.260;2022-08-24T14:10:33;1.40;;;1.30;;
15356;SDS011;7778;48.792;9.260;2022-08-24T14:13:35;1.83;;;1.42;;
15356;SDS011;7778;48.792;9.260;2022-08-24T14:16:50;2.15;;;1.25;;
15356;SDS011;7778;48.792;9.260;2022-08-24T14:20:09;1.40;;;1.30;;
15356;SDS011;7778;48.792;9.260;2022-08-24T14:23:16;1.45;;;1.33;;
15356;SDS011;7778;48.792;9.260;2022-08-24T14:29:43;1.48;;;1.38;;
15356;SDS011;7778;48.792;9.260;2022-08-24T14:32:30;1.27;;;1.20;;
15356;SDS011;7778;48.792;9.260;2022-08-24T14:35:36;2.05;;;1.30;;
15356;SDS011;7778;48.792;9.260;2022-08-24T14:38:33;3.08;;;1.50;;
15356;SDS011;7778;48.792;9.260;2022-08-24T14:41:51;1.65;;;1.50;;
15356;SDS011;7778;48.792;9.260;2022-08-24T14:44:55;3.33;;;1.63;;
15356;SDS011;7778;48.792;9.260;2022-08-24T14:47:57;1.67;;;1.58;;
15356;SDS011;7778;48.792;9.260;2022-08-24T14:50:55;1.70;;;1.60;;
15356;SDS011;7778;48.792;9.260;2022-08-24T14:53:53;1.77;;;1.55;;
15356;SDS011;7778;48.792;9.260;2022-08-24T14:56:49;2.25;;;1.70;;
15356;SDS011;7778;48.792;9.260;2022-08-24T14:59:50;1.67;;;1.58;;
15356;SDS011;7778;48.792;9.260;2022-08-24T15:02:54;1.58;;;1.48;;
15356;SDS011;7778;48.792;9.260;2022-08-24T15:06:08;2.30;;;1.60;;
15356;SDS011;7778;48.792;9.260;2022-08-24T15:09:05;3.85;;;1.60;;
15356;SDS011;7778;48.792;9.260;2022-08-24T15:11:57;1.70;;;1.60;;
15356;SDS011;7778;48.792;9.260;2022-08-24T15:15:09;1.50;;;1.40;;
15356;SDS011;7778;48.792;9.260;2022-08-24T15:18:03;1.95;;;1.50;;
15356;SDS011;7778;48.792;9.260;2022-08-24T15:21:10;1.10;;;0.95;;
15356;SDS011;7778;48.792;9.260;2022-08-24T15:24:14;3.03;;;2.03;;
15356;SDS011;7778;48.792;9.260;2022-08-24T15:27:11;4.47;;;2.55;;
15356;SDS011;7778;48.792;9.260;2022-08-24T15:30:17;1.83;;;1.70;;
15356;SDS011;7778;48.792;9.260;2022-08-24T15:33:08;3.65;;;1.88;;
15356;SDS011;7778;48.792;9.260;2022-08-24T15:36:04;1.90;;;1.80;;
15356;SDS011;7778;48.792;9.260;2022-08-24T15:38:55;2.58;;;1.77;;
15356;SDS011;7778;48.792;9.260;2022-08-24T15:41:41;1.60;;;1.42;;
15356;SDS011;7778;48.792;9.260;2022-08-24T15:44:27;2.05;;;1.50;;
15356;SDS011;7778;48.792;9.260;2022-08-24T15:47:20;1.73;;;1.50;;
15356;SDS011;7778;48.792;9.260;2022-08-24T15:50:18;1.40;;;1.30;;
15356;SDS011;7778;48.792;9.260;2022-08-24T15:53:23;3.28;;;1.70;;
15356;SDS011;7778;48.792;9.260;2022-08-24T15:56:24;1.70;;;1.60;;
15356;SDS011;7778;48.792;9.260;2022-08-24T15:59:23;1.98;;;1.50;;
15356;SDS011;7778;48.792;9.260;2022-08-24T16:02:22;1.00;;;0.93;;
15356;SDS011;7778;48.792;9.260;2022-08-24T16:05:15;1.75;;;1.30;;
15356;SDS011;7778;48.792;9.260;2022-08-24T16:08:10;2.10;;;1.30;;
15356;SDS011;7778;48.792;9.260;2022-08-24T16:10:57;1.95;;;1.50;;
15356;SDS011;7778;48.792;9.260;2022-08-24T16:14:04;4.18;;;1.23;;
15356;SDS011;7778;48.792;9.260;2022-08-24T16:16:56;3.25;;;1.50;;
15356;SDS011;7778;48.792;9.260;2022-08-24T16:19:47;2.42;;;1.58;;
15356;SDS011;7778;48.792;9.260;2022-08-24T16:22:36;1.23;;;1.13;;
15356;SDS011;7778;48.792;9.260;2022-08-24T16:25:35;1.60;;;1.10;;
15356;SDS011;7778;48.792;9.260;2022-08-24T16:28:34;1.33;;;1.20;;
15356;SDS011;7778;48.792;9.260;2022-08-24T16:34:35;1.95;;;1.58;;
15356;SDS011;7778;48.792;9.260;2022-08-24T16:37:22;1.77;;;1.30;;
15356;SDS011;7778;48.792;9.260;2022-08-24T16:40:08;1.40;;;1.30;;
15356;SDS011;7778;48.792;9.260;2022-08-24T16:42:56;1.08;;;1.02;;
15356;SDS011;7778;48.792;9.260;2022-08-24T16:45:42;1.30;;;1.20;;
15356;SDS011;7778;48.792;9.260;2022-08-24T16:48:29;1.05;;;0.98;;
15356;SDS011;7778;48.792;9.260;2022-08-24T16:51:15;1.23;;;1.13;;
15356;SDS011;7778;48.792;9.260;2022-08-24T16:54:01;1.85;;;1.52;;
15356;SDS011;7778;48.792;9.260;2022-08-24T16:56:47;1.33;;;1.23;;
15356;SDS011;7778;48.792;9.260;2022-08-24T16:59:34;1.33;;;1.23;;
15356;SDS011;7778;48.792;9.260;2022-08-24T17:02:21;1.30;;;1.20;;
15356;SDS011;7778;48.792;9.260;2022-08-24T17:05:08;1.30;;;1.20;;
15356;SDS011;7778;48.792;9.260;2022-08-24T17:07:54;1.30;;;1.20;;
15356;SDS011;7778;48.792;9.260;2022-08-24T17:10:42;1.75;;;1.52;;
15356;SDS011;7778;48.792;9.260;2022-08-24T17:13:27;3.00;;;1.40;;
15356;SDS011;7778;48.792;9.260;2022-08-24T17:16:14;1.70;;;1.60;;
15356;SDS011;7778;48.792;9.260;2022-08-24T17:19:00;1.60;;;1.10;;
15356;SDS011;7778;48.792;9.260;2022-08-24T17:21:53;1.30;;;1.20;;
15356;SDS011;7778;48.792;9.260;2022-08-24T17:24:39;1.25;;;1.15;;
15356;SDS011;7778;48.792;9.260;2022-08-24T17:27:26;2.28;;;1.40;;
15356;SDS011;7778;48.792;9.260;2022-08-24T17:30:16;1.92;;;1.25;;
15356;SDS011;7778;48.792;9.260;2022-08-24T17:33:07;1.42;;;1.23;;
15356;SDS011;7778;48.792;9.260;2022-08-24T17:35:53;2.58;;;1.52;;
15356;SDS011;7778;48.792;9.260;2022-08-24T17:38:40;1.60;;;1.50;;
15356;SDS011;7778;48.792;9.260;2022-08-24T17:41:29;2.00;;;1.30;;
15356;SDS011;7778;48.792;9.260;2022-08-24T17:44:17;1.30;;;1.17;;
15356;SDS011;7778;48.792;9.260;2022-08-24T17:47:07;3.40;;;1.60;;
15356;SDS011;7778;48.792;9.260;2022-08-24T17:49:54;1.30;;;1.10;;
15356;SDS011;7778;48.792;9.260;2022-08-24T17:52:41;1.42;;;1.33;;
15356;SDS011;7778;48.792;9.260;2022-08-24T17:55:27;1.58;;;1.13;;